Aeroporto :
LOGIN :

Iscrizione | Disclaimer

   EN    FR    IT 

 










Sommario :    VFR   VFR Marginale   IFR   IFR Intensivo   IFR Molto Intensivo
Visibilità : 
Base nubi : 
>= 8 km
>= 3000ft
5 / 8 km
1000 / 3000 ft
1500m / 5 km
500 / 1000 ft
800 / 1500m
200 / 500 ft
< 800m
< 200 ft
Simboli :   Temporali  Nebbia  Neve Forte  Precipitazioni Forti  Vento > 20 kt
SIGMETs :   Varie  Temporali  Ghiacco  Turbolenza  Onda orograficha  Ceneri Vulcaniche






- Altitudine del aeroporto : 3381 ft
- Codice IATA : KYA


LTAN - Konya AB

ULTIMO METAR :
  • 291250Z 08007KT 050V110 7000 -RA FEW013 BKN030 BKN090 05/03 Q1003 RERA NOSIG

METARs OBSOLETI :
  • 291230Z 09006KT 060V120 7000 -RA FEW015 BKN035 BKN090 04/03 Q1003 RERA NOSIG RMK RWY19 15008KT
  • 291150Z 16008KT 130V190 7000 RA FEW010 BKN030 BKN090 05/04 Q1002 BECMG TL1230 NSW
  • 291119Z 19008KT 8000 RA BKN030 BKN090 05/03 Q1002 BECMG TL1200 NSW RMK RWY19 20010KT
  • 291050Z 08005KT 050V150 9999 -RA BKN037 BKN090 09/01 Q1002 RERA NOSIG

TAF TAF LTAN
Valido dal 29 a 12 ore il 29 a 21 ore UTC


291040Z 2912/2921 05009KT 9999 -RA BKN030 BKN090
BECMG 2913/2915 34015KT



MetMap, La meteo Aeronautica in un colpo d'occhio ! - Copyright ORBIFLY Dicembre 2007 - Disclaimer

ORBIFLY MET'MAP TEAM :

Programmazione e sviluppo : Alexandra Zaïnal
Concezione : Baudouin d'Aumeries
Aiuto per la programmazione : Marc-Olivier Méhu
Supporto tecnico e logistico : Manuel Goepfert
Aiuto per la traduzione : Arnaldo La Scala

Contatto : metmap@orbifly.com




FONTI E CREDITI :

   NOAA